createdAt,value
2018-11-10T00:02:06.598Z,26.60
2018-11-10T00:04:41.374Z,25.50
2018-11-10T00:07:16.238Z,25.67
2018-11-10T00:09:50.991Z,25.80
2018-11-10T00:12:25.947Z,25.97
2018-11-10T00:15:00.507Z,24.27
2018-11-10T00:17:35.463Z,25.60
2018-11-10T00:20:11.492Z,25.47
2018-11-10T00:22:46.364Z,26.20
2018-11-10T00:25:23.111Z,24.90
2018-11-10T00:27:57.806Z,24.43
2018-11-10T00:30:33.384Z,25.63
2018-11-10T00:33:11.884Z,26.13
2018-11-10T00:35:46.534Z,24.67
2018-11-10T00:38:22.762Z,26.00
2018-11-10T00:40:57.430Z,24.60
2018-11-10T00:43:33.182Z,24.50
2018-11-10T00:46:09.943Z,25.07
2018-11-10T00:48:44.811Z,26.20
2018-11-10T00:51:19.727Z,25.40
2018-11-10T00:53:55.074Z,26.93
2018-11-10T00:56:30.605Z,25.90
2018-11-10T00:59:06.766Z,26.37
2018-11-10T01:01:42.211Z,27.23
2018-11-10T01:04:17.502Z,25.40
2018-11-10T01:06:52.186Z,25.63
2018-11-10T01:09:27.223Z,24.40
2018-11-10T01:12:01.942Z,24.80
2018-11-10T01:14:36.923Z,23.53
2018-11-10T01:17:17.162Z,24.17
2018-11-10T01:19:51.920Z,24.50
2018-11-10T01:22:26.808Z,24.10
2018-11-10T01:25:01.417Z,23.90
2018-11-10T01:27:36.497Z,23.87
2018-11-10T01:30:16.253Z,23.10
2018-11-10T01:32:50.861Z,24.63
2018-11-10T01:35:25.562Z,24.47
2018-11-10T01:38:00.561Z,23.13
2018-11-10T01:40:37.796Z,23.47
2018-11-10T01:43:16.021Z,23.90
2018-11-10T01:45:50.917Z,23.80
2018-11-10T01:48:26.775Z,25.87
2018-11-10T01:51:02.769Z,25.77
2018-11-10T01:53:37.952Z,27.67
2018-11-10T01:56:13.038Z,27.30
2018-11-10T01:58:50.430Z,26.53
2018-11-10T02:01:25.404Z,24.13
2018-11-10T02:04:00.864Z,26.90
2018-11-10T02:06:36.891Z,25.83
2018-11-10T02:09:12.570Z,26.80
2018-11-10T02:11:47.521Z,25.57
2018-11-10T02:14:22.475Z,23.57
2018-11-10T02:16:57.456Z,25.87
2018-11-10T02:19:33.391Z,25.13
2018-11-10T02:22:08.660Z,24.97
2018-11-10T02:24:43.953Z,25.83
2018-11-10T02:27:22.154Z,24.90
2018-11-10T02:29:58.437Z,25.03
2018-11-10T02:32:33.301Z,24.37
2018-11-10T02:35:08.897Z,26.33
2018-11-10T02:37:46.920Z,28.87
2018-11-10T02:40:23.491Z,33.47
2018-11-10T02:42:58.070Z,38.17
2018-11-10T02:45:33.797Z,43.40
2018-11-10T02:48:08.840Z,39.70
2018-11-10T02:50:43.797Z,35.33
2018-11-10T02:53:18.807Z,34.43
2018-11-10T02:55:53.239Z,37.40
2018-11-10T02:58:28.141Z,35.70
2018-11-10T03:01:02.879Z,33.77
2018-11-10T03:03:37.836Z,32.63
2018-11-10T03:06:13.043Z,31.87
2018-11-10T03:08:47.761Z,32.47
2018-11-10T03:11:22.727Z,32.33
2018-11-10T03:13:58.541Z,31.00
2018-11-10T03:16:33.414Z,30.37
2018-11-10T03:19:11.364Z,29.97
2018-11-10T03:21:45.908Z,27.93
2018-11-10T03:24:32.053Z,27.67
2018-11-10T03:27:08.477Z,27.73
2018-11-10T03:29:44.404Z,28.77
2018-11-10T03:32:19.544Z,27.37
2018-11-10T03:34:54.845Z,28.70
2018-11-10T03:37:30.654Z,28.93
2018-11-10T03:40:07.266Z,29.50
2018-11-10T03:42:42.154Z,27.27
2018-11-10T03:45:17.718Z,27.60
2018-11-10T03:47:53.224Z,25.90
2018-11-10T03:50:28.091Z,25.13
2018-11-10T03:53:02.652Z,24.63
2018-11-10T03:55:37.629Z,24.40
2018-11-10T03:58:12.651Z,25.23
2018-11-10T04:00:47.591Z,25.00
2018-11-10T04:03:22.500Z,25.57
2018-11-10T04:05:57.260Z,25.57
2018-11-10T04:08:31.881Z,25.53
2018-11-10T04:11:06.885Z,25.03
2018-11-10T04:13:41.845Z,23.60
2018-11-10T04:16:18.464Z,24.80
2018-11-10T04:18:53.443Z,25.30
2018-11-10T04:21:30.572Z,24.70
2018-11-10T04:24:08.400Z,25.00
2018-11-10T04:26:43.564Z,26.10
2018-11-10T04:29:18.321Z,26.43
2018-11-10T04:31:53.666Z,25.93
2018-11-10T04:34:29.631Z,26.30
2018-11-10T04:37:04.273Z,26.67
2018-11-10T04:39:39.895Z,25.70
2018-11-10T04:42:16.053Z,26.87
2018-11-10T04:44:51.254Z,28.00
2018-11-10T04:47:26.004Z,26.90
2018-11-10T04:50:00.748Z,26.53
2018-11-10T04:52:35.391Z,24.37
2018-11-10T04:55:11.128Z,24.97
2018-11-10T04:57:48.152Z,25.30
2018-11-10T05:00:22.777Z,24.57
2018-11-10T05:02:58.787Z,24.17
2018-11-10T05:05:33.732Z,23.80
2018-11-10T05:08:10.456Z,23.77
2018-11-10T05:10:45.476Z,24.30
2018-11-10T05:13:20.015Z,22.90
2018-11-10T05:15:54.708Z,23.40
2018-11-10T05:18:29.488Z,23.80
2018-11-10T05:21:04.479Z,22.80
2018-11-10T05:23:39.322Z,25.17
2018-11-10T05:26:14.505Z,24.77
2018-11-10T05:28:49.852Z,24.07
2018-11-10T05:31:24.601Z,24.87
2018-11-10T05:33:59.508Z,25.53
2018-11-10T05:36:35.024Z,25.80
2018-11-10T05:39:10.829Z,23.50
2018-11-10T05:41:45.722Z,24.50
2018-11-10T05:44:20.641Z,24.20
2018-11-10T05:46:55.775Z,24.03
2018-11-10T05:49:30.401Z,23.80
2018-11-10T05:52:06.850Z,23.50
2018-11-10T05:54:43.127Z,24.57
2018-11-10T05:57:19.074Z,22.40
2018-11-10T05:59:54.347Z,22.27
2018-11-10T06:02:29.848Z,23.57
2018-11-10T06:05:04.707Z,25.20
2018-11-10T06:07:39.680Z,22.67
2018-11-10T06:10:15.106Z,22.33
2018-11-10T06:12:49.993Z,22.60
2018-11-10T06:15:25.284Z,22.53
2018-11-10T06:18:00.066Z,23.57
2018-11-10T06:20:34.870Z,23.17
2018-11-10T06:23:09.862Z,23.30
2018-11-10T06:25:44.549Z,24.13
2018-11-10T06:28:19.512Z,22.67
2018-11-10T06:30:54.716Z,23.03
2018-11-10T06:33:29.732Z,23.17
2018-11-10T06:36:05.279Z,23.93
2018-11-10T06:38:40.220Z,23.83
2018-11-10T06:41:14.929Z,24.33
2018-11-10T06:43:49.853Z,22.97
2018-11-10T06:46:25.967Z,22.80
2018-11-10T06:49:02.987Z,21.87
2018-11-10T06:51:37.907Z,22.20
2018-11-10T06:54:15.255Z,23.33
2018-11-10T06:56:51.437Z,27.90
2018-11-10T06:59:26.168Z,26.37
2018-11-10T07:02:01.519Z,24.37
2018-11-10T07:04:37.290Z,27.63
2018-11-10T07:07:17.669Z,24.27
2018-11-10T07:09:53.107Z,26.43
2018-11-10T07:12:28.596Z,22.80
2018-11-10T07:15:04.531Z,21.77
2018-11-10T07:17:39.553Z,22.17
2018-11-10T07:20:14.780Z,22.67
2018-11-10T07:22:49.414Z,21.77
2018-11-10T07:25:24.792Z,22.43
2018-11-10T07:27:59.487Z,20.20
2018-11-10T07:30:34.946Z,21.57
2018-11-10T07:33:10.156Z,21.93
2018-11-10T07:35:45.151Z,20.60
2018-11-10T07:38:20.459Z,21.53
2018-11-10T07:40:55.337Z,21.23
2018-11-10T07:43:30.263Z,21.20
2018-11-10T07:46:05.380Z,22.07
2018-11-10T07:48:41.317Z,23.63
2018-11-10T07:51:15.981Z,22.20
2018-11-10T07:53:50.333Z,22.20
2018-11-10T07:56:24.750Z,21.97
2018-11-10T07:58:59.573Z,21.87
2018-11-10T08:01:34.078Z,20.83
2018-11-10T08:04:08.963Z,22.30
2018-11-10T08:06:43.472Z,21.10
2018-11-10T08:09:17.885Z,20.80
2018-11-10T08:11:52.459Z,22.10
2018-11-10T08:14:27.192Z,22.97
2018-11-10T08:17:02.338Z,22.50
2018-11-10T08:19:37.017Z,22.20
2018-11-10T08:22:12.357Z,22.17
2018-11-10T08:24:46.860Z,20.37
2018-11-10T08:27:21.618Z,21.53
2018-11-10T08:29:56.128Z,22.70
2018-11-10T08:32:30.785Z,22.17
2018-11-10T08:35:06.207Z,21.10
2018-11-10T08:37:40.924Z,21.00
2018-11-10T08:40:16.582Z,21.90
2018-11-10T08:42:51.166Z,21.67
2018-11-10T08:45:25.967Z,20.07
2018-11-10T08:48:02.421Z,18.73
2018-11-10T08:50:37.232Z,19.97
2018-11-10T08:53:12.024Z,18.87
2018-11-10T08:55:46.478Z,19.27
2018-11-10T08:58:21.297Z,18.50
2018-11-10T09:00:56.354Z,17.67
2018-11-10T09:03:30.899Z,18.23
2018-11-10T09:06:08.211Z,18.23
2018-11-10T09:08:42.701Z,18.23
2018-11-10T09:11:17.235Z,18.37
2018-11-10T09:13:51.766Z,16.80
2018-11-10T09:16:26.361Z,18.37
2018-11-10T09:19:01.518Z,17.70
2018-11-10T09:21:36.371Z,16.80
2018-11-10T09:24:11.107Z,17.97
2018-11-10T09:26:46.024Z,17.27
2018-11-10T09:29:26.647Z,17.03
2018-11-10T09:32:08.132Z,16.63
2018-11-10T09:34:42.640Z,16.63
2018-11-10T09:37:17.401Z,16.87
2018-11-10T09:39:52.167Z,18.47
2018-11-10T09:42:27.021Z,16.17
2018-11-10T09:45:01.332Z,16.33
2018-11-10T09:47:36.149Z,15.30
2018-11-10T09:50:16.906Z,15.63
2018-11-10T09:52:51.639Z,15.63
2018-11-10T09:55:31.180Z,16.40
2018-11-10T09:58:05.889Z,15.00
2018-11-10T10:00:40.449Z,14.13
2018-11-10T10:03:15.214Z,13.30
2018-11-10T10:05:49.944Z,13.40
2018-11-10T10:08:25.183Z,14.07
2018-11-10T10:10:59.932Z,13.27
2018-11-10T10:13:34.572Z,12.97
2018-11-10T10:16:09.262Z,12.17
2018-11-10T10:18:44.700Z,12.50
2018-11-10T10:21:19.438Z,12.27
2018-11-10T10:23:55.286Z,12.27
2018-11-10T10:26:29.973Z,11.50
2018-11-10T10:29:05.082Z,12.40
2018-11-10T10:31:39.607Z,11.70
2018-11-10T10:34:18.965Z,11.90
2018-11-10T10:36:53.575Z,12.63
2018-11-10T10:39:28.164Z,13.90
2018-11-10T10:42:02.893Z,12.57
2018-11-10T10:44:37.443Z,12.17
2018-11-10T10:47:12.080Z,11.73
2018-11-10T10:49:46.918Z,13.10
2018-11-10T10:52:21.632Z,12.30
2018-11-10T10:54:56.293Z,12.10
2018-11-10T10:57:30.769Z,12.93
2018-11-10T11:00:09.875Z,13.50
2018-11-10T11:02:59.191Z,13.87
2018-11-10T11:05:39.367Z,12.53
2018-11-10T11:08:17.237Z,12.87
2018-11-10T11:10:57.170Z,13.20
2018-11-10T11:13:31.756Z,12.97
2018-11-10T11:16:09.655Z,11.30
2018-11-10T11:18:45.297Z,12.30
2018-11-10T11:21:30.526Z,12.03
2018-11-10T11:24:09.923Z,11.77
2018-11-10T11:26:46.022Z,11.93
2018-11-10T11:29:20.949Z,12.73
2018-11-10T11:31:55.347Z,12.90
2018-11-10T11:34:30.273Z,12.50
2018-11-10T11:37:05.629Z,13.27
2018-11-10T11:39:40.464Z,12.87
2018-11-10T11:42:15.738Z,14.07
2018-11-10T11:44:50.210Z,12.57
2018-11-10T11:47:24.979Z,12.90
2018-11-10T11:49:59.676Z,12.90
2018-11-10T11:52:33.961Z,13.50
2018-11-10T11:55:09.437Z,14.10
2018-11-10T11:57:44.222Z,14.40
2018-11-10T12:00:21.955Z,13.07
2018-11-10T12:02:57.220Z,12.63
2018-11-10T12:05:32.139Z,13.57
2018-11-10T12:08:06.844Z,12.90
2018-11-10T12:10:41.513Z,11.83
2018-11-10T12:13:17.098Z,13.10
2018-11-10T12:15:51.784Z,12.83
2018-11-10T12:18:26.378Z,12.03
2018-11-10T12:21:01.478Z,12.73
2018-11-10T12:23:36.121Z,12.70
2018-11-10T12:26:13.195Z,12.30
2018-11-10T12:28:48.987Z,12.30
2018-11-10T12:31:23.933Z,11.53
2018-11-10T12:33:58.632Z,11.83
2018-11-10T12:36:37.456Z,11.97
2018-11-10T12:39:12.130Z,12.80
2018-11-10T12:41:46.841Z,12.63
2018-11-10T12:44:25.625Z,11.70
2018-11-10T12:47:01.082Z,11.43
2018-11-10T12:49:35.993Z,11.73
2018-11-10T12:52:10.715Z,10.77
2018-11-10T12:54:45.611Z,11.33
2018-11-10T12:57:20.625Z,10.87
2018-11-10T12:59:56.399Z,10.47
2018-11-10T13:02:31.069Z,10.00
2018-11-10T13:05:06.402Z,10.83
2018-11-10T13:07:42.349Z,10.23
2018-11-10T13:10:17.212Z,10.27
2018-11-10T13:12:52.282Z,9.73
2018-11-10T13:15:26.779Z,10.37
2018-11-10T13:18:01.717Z,9.37
2018-11-10T13:20:36.555Z,9.53
2018-11-10T13:23:11.293Z,8.63
2018-11-10T13:25:45.937Z,8.93
2018-11-10T13:28:20.463Z,8.90
2018-11-10T13:30:55.041Z,9.07
2018-11-10T13:33:29.624Z,8.93
2018-11-10T13:36:04.840Z,9.30
2018-11-10T13:38:39.618Z,9.03
2018-11-10T13:41:17.068Z,9.03
2018-11-10T13:43:52.008Z,8.50
2018-11-10T13:46:27.507Z,8.43
2018-11-10T13:49:02.240Z,8.97
2018-11-10T13:51:38.679Z,9.03
2018-11-10T13:54:13.214Z,9.33
2018-11-10T13:56:50.153Z,9.90
2018-11-10T13:59:33.296Z,9.80
2018-11-10T14:02:08.108Z,9.23
2018-11-10T14:04:44.018Z,9.33
2018-11-10T14:07:18.789Z,9.60
2018-11-10T14:09:53.255Z,9.73
2018-11-10T14:12:27.992Z,9.80
2018-11-10T14:15:03.092Z,9.67
2018-11-10T14:17:39.869Z,9.97
2018-11-10T14:20:15.426Z,9.70
2018-11-10T14:22:50.135Z,10.13
2018-11-10T14:25:24.720Z,10.07
2018-11-10T14:27:59.313Z,10.73
2018-11-10T14:30:33.965Z,10.57
2018-11-10T14:33:08.736Z,10.30
2018-11-10T14:35:43.544Z,10.60
2018-11-10T14:38:18.554Z,10.90
2018-11-10T14:40:52.956Z,10.53
2018-11-10T14:43:27.873Z,9.87
2018-11-10T14:46:02.484Z,10.37
2018-11-10T14:48:37.307Z,10.53
2018-11-10T14:51:11.909Z,9.83
2018-11-10T14:53:46.754Z,10.03
2018-11-10T14:56:21.406Z,10.90
2018-11-10T14:58:56.335Z,10.37
2018-11-10T15:01:30.947Z,10.30
2018-11-10T15:04:05.966Z,9.53
2018-11-10T15:06:40.623Z,10.03
2018-11-10T15:09:20.630Z,11.13
2018-11-10T15:11:55.520Z,15.73
2018-11-10T15:14:30.149Z,11.63
2018-11-10T15:17:05.154Z,12.40
2018-11-10T15:19:39.911Z,11.83
2018-11-10T15:22:15.274Z,12.20
2018-11-10T15:24:49.747Z,12.07
2018-11-10T15:27:24.672Z,11.93
2018-11-10T15:29:59.280Z,12.83
2018-11-10T15:32:34.106Z,12.23
2018-11-10T15:35:10.830Z,12.57
2018-11-10T15:37:50.698Z,12.87
2018-11-10T15:40:25.559Z,13.33
2018-11-10T15:43:00.228Z,13.53
2018-11-10T15:45:40.364Z,14.20
2018-11-10T15:48:14.903Z,14.53
2018-11-10T15:50:49.806Z,14.70
2018-11-10T15:53:24.723Z,13.93
2018-11-10T15:56:00.815Z,14.33
2018-11-10T15:58:35.464Z,13.97
2018-11-10T16:01:10.179Z,14.13
2018-11-10T16:05:47.425Z,13.87
2018-11-10T16:08:22.622Z,14.27
2018-11-10T16:11:00.112Z,14.30
2018-11-10T16:13:34.804Z,14.77
2018-11-10T16:16:09.572Z,14.60
2018-11-10T16:18:44.214Z,16.10
2018-11-10T16:21:19.021Z,16.67
2018-11-10T16:23:53.903Z,15.40
2018-11-10T16:26:28.774Z,15.93
2018-11-10T16:29:03.376Z,15.47
2018-11-10T16:31:38.451Z,16.63
2018-11-10T16:34:29.431Z,16.03
2018-11-10T16:37:04.345Z,16.37
2018-11-10T16:39:39.271Z,17.53
2018-11-10T16:45:53.660Z,19.30
2018-11-10T16:48:28.518Z,17.93
2018-11-10T16:51:03.500Z,18.10
2018-11-10T16:53:38.262Z,17.87
2018-11-10T16:56:14.230Z,17.73
2018-11-10T16:58:49.025Z,18.07
2018-11-10T17:01:23.641Z,17.67
2018-11-10T17:03:58.268Z,17.30
2018-11-10T17:06:32.959Z,17.87
2018-11-10T17:09:09.546Z,17.97
2018-11-10T17:11:45.583Z,18.50
2018-11-10T17:14:20.307Z,18.07
2018-11-10T17:16:54.958Z,18.87
2018-11-10T17:19:29.951Z,17.83
2018-11-10T17:22:05.228Z,17.87
2018-11-10T17:24:40.131Z,18.23
2018-11-10T17:27:16.409Z,17.80
2018-11-10T17:29:50.920Z,18.73
2018-11-10T17:32:25.636Z,18.23
2018-11-10T17:35:05.387Z,18.40
2018-11-10T17:37:40.069Z,18.33
2018-11-10T17:40:15.632Z,19.30
2018-11-10T17:42:50.263Z,20.00
2018-11-10T17:45:24.858Z,21.07
2018-11-10T17:47:59.644Z,19.67
2018-11-10T17:50:34.541Z,19.93
2018-11-10T17:53:09.086Z,18.73
2018-11-10T17:55:43.429Z,18.77
2018-11-10T17:58:17.715Z,20.33
2018-11-10T18:00:51.987Z,23.03
2018-11-10T18:03:26.411Z,21.00
2018-11-10T18:06:00.771Z,19.47
2018-11-10T18:08:35.156Z,18.77
2018-11-10T18:11:09.707Z,17.90
2018-11-10T18:13:44.246Z,18.70
2018-11-10T18:16:18.623Z,19.03
2018-11-10T18:18:52.966Z,19.40
2018-11-10T18:21:27.343Z,18.13
2018-11-10T18:24:01.779Z,18.37
2018-11-10T18:26:36.068Z,17.40
2018-11-10T18:29:10.403Z,19.27
2018-11-10T18:31:44.878Z,18.13
2018-11-10T18:34:19.359Z,18.90
2018-11-10T18:36:53.803Z,18.20
2018-11-10T18:39:28.157Z,18.77
2018-11-10T18:42:02.561Z,17.90
2018-11-10T18:44:37.024Z,18.97
2018-11-10T18:47:11.481Z,18.67
2018-11-10T18:49:45.787Z,17.30
2018-11-10T18:52:21.048Z,18.87
2018-11-10T18:54:55.908Z,18.90
2018-11-10T18:57:32.746Z,18.87
2018-11-10T19:00:09.460Z,18.73
2018-11-10T19:02:46.097Z,18.73
2018-11-10T19:05:20.639Z,18.10
2018-11-10T19:07:55.257Z,18.53
2018-11-10T19:10:29.875Z,18.53
2018-11-10T19:13:04.733Z,17.20
2018-11-10T19:15:40.876Z,17.40
2018-11-10T19:18:15.741Z,18.13
2018-11-10T19:20:51.143Z,17.77
2018-11-10T19:23:27.080Z,17.43
2018-11-10T19:26:02.144Z,17.30
2018-11-10T19:28:37.527Z,16.97
2018-11-10T19:31:19.333Z,18.70
2018-11-10T19:33:56.115Z,17.73
2018-11-10T19:36:31.877Z,18.20
2018-11-10T19:39:08.892Z,18.20
2018-11-10T19:41:44.412Z,17.27
2018-11-10T19:44:22.141Z,16.20
2018-11-10T19:46:57.302Z,18.30
2018-11-10T19:49:45.915Z,16.97
2018-11-10T19:52:25.376Z,17.47
2018-11-10T19:55:27.594Z,17.67
2018-11-10T19:58:20.558Z,16.87
2018-11-10T20:00:55.256Z,16.50
2018-11-10T20:03:30.191Z,16.93
2018-11-10T20:06:18.156Z,16.33
2018-11-10T20:09:13.057Z,16.30
2018-11-10T20:12:02.881Z,16.43
2018-11-10T20:14:40.335Z,17.13
2018-11-10T20:17:15.039Z,16.70
2018-11-10T20:19:49.536Z,16.20
2018-11-10T20:22:23.976Z,16.33
2018-11-10T20:24:58.678Z,15.97
2018-11-10T20:27:35.326Z,15.77
2018-11-10T20:30:12.583Z,17.23
2018-11-10T20:32:47.278Z,17.13
2018-11-10T20:35:22.041Z,16.60
2018-11-10T20:37:56.941Z,17.40
2018-11-10T20:40:31.803Z,16.60
2018-11-10T20:43:06.677Z,17.97
2018-11-10T20:45:41.657Z,32.77
2018-11-10T20:48:16.524Z,24.97
2018-11-10T20:50:51.178Z,15.27
2018-11-10T20:53:26.099Z,15.00
2018-11-10T20:56:01.121Z,15.73
2018-11-10T20:58:36.093Z,13.73
2018-11-10T21:01:10.947Z,13.93
2018-11-10T21:03:45.577Z,14.10
2018-11-10T21:06:21.147Z,14.13
2018-11-10T21:08:55.914Z,14.10
2018-11-10T21:11:30.507Z,14.67
2018-11-10T21:14:07.859Z,13.87
2018-11-10T21:16:43.634Z,14.07
2018-11-10T21:19:18.345Z,14.30
2018-11-10T21:21:53.092Z,14.03
2018-11-10T21:24:27.663Z,13.53
2018-11-10T21:27:03.624Z,14.53
2018-11-10T21:29:38.930Z,13.93
2018-11-10T21:32:14.301Z,14.53
2018-11-10T21:34:52.526Z,13.40
2018-11-10T21:37:27.069Z,13.23
2018-11-10T21:40:03.831Z,13.47
2018-11-10T21:42:38.845Z,13.60
2018-11-10T21:45:14.221Z,12.80
2018-11-10T21:47:48.698Z,13.57
2018-11-10T21:50:23.692Z,13.83
2018-11-10T21:52:59.388Z,13.43
2018-11-10T21:55:34.042Z,13.93
2018-11-10T21:58:09.331Z,13.47
2018-11-10T22:00:44.610Z,12.73
2018-11-10T22:03:19.151Z,14.03
2018-11-10T22:05:53.963Z,13.10
2018-11-10T22:08:28.869Z,13.67
2018-11-10T22:11:03.737Z,13.20
2018-11-10T22:13:38.308Z,12.83
2018-11-10T22:16:13.634Z,13.43
2018-11-10T22:18:48.390Z,13.40
2018-11-10T22:21:23.064Z,13.20
2018-11-10T22:23:57.976Z,13.10
2018-11-10T22:26:32.593Z,12.93
2018-11-10T22:29:09.130Z,13.00
2018-11-10T22:31:44.646Z,13.80
2018-11-10T22:34:20.073Z,13.50
2018-11-10T22:36:55.100Z,12.70
2018-11-10T22:39:29.711Z,12.37
2018-11-10T22:42:06.049Z,12.53
2018-11-10T22:44:40.799Z,12.20
2018-11-10T22:47:15.808Z,13.00
2018-11-10T22:49:50.353Z,12.87
2018-11-10T22:52:24.816Z,13.13
2018-11-10T22:54:59.685Z,13.23
2018-11-10T22:57:34.797Z,12.97
2018-11-10T23:00:16.590Z,12.40
2018-11-10T23:02:52.383Z,11.83
2018-11-10T23:05:27.885Z,12.07
2018-11-10T23:08:06.988Z,12.77
2018-11-10T23:10:41.714Z,12.60
2018-11-10T23:13:17.021Z,12.50
2018-11-10T23:15:51.450Z,12.80
2018-11-10T23:18:25.993Z,12.63
2018-11-10T23:21:02.155Z,12.73
2018-11-10T23:23:37.385Z,13.80
2018-11-10T23:26:12.972Z,13.20
2018-11-10T23:28:47.910Z,13.43
2018-11-10T23:31:22.904Z,13.90
2018-11-10T23:33:58.561Z,13.87
2018-11-10T23:36:34.312Z,14.17
2018-11-10T23:39:11.034Z,14.57
2018-11-10T23:41:45.988Z,13.60
2018-11-10T23:44:20.614Z,12.77
2018-11-10T23:46:55.347Z,13.27
2018-11-10T23:49:29.939Z,13.17
2018-11-10T23:52:10.197Z,12.00
2018-11-10T23:54:45.202Z,13.13
2018-11-10T23:57:20.030Z,12.77
2018-11-10T23:59:54.838Z,12.03
